createdAt,value
2022-10-15T00:02:10.561Z,79.81
2022-10-15T00:05:19.219Z,79.36
2022-10-15T00:08:25.672Z,79.78
2022-10-15T00:11:32.698Z,79.72
2022-10-15T00:14:39.149Z,79.69
2022-10-15T00:17:45.599Z,79.56
2022-10-15T00:20:54.902Z,79.85
2022-10-15T00:24:00.587Z,79.81
2022-10-15T00:27:08.794Z,79.98
2022-10-15T00:30:15.758Z,80.05
2022-10-15T00:33:24.025Z,79.86
2022-10-15T00:36:34.845Z,79.68
2022-10-15T00:39:41.359Z,79.59
2022-10-15T00:42:47.320Z,80.02
2022-10-15T00:45:54.053Z,79.67
2022-10-15T00:52:22.928Z,79.34
2022-10-15T00:55:33.519Z,79.46
2022-10-15T00:58:40.204Z,79.96
2022-10-15T01:01:46.969Z,79.42
2022-10-15T01:04:54.440Z,79.63
2022-10-15T01:08:03.595Z,79.38
2022-10-15T01:11:23.765Z,79.37
2022-10-15T01:14:38.888Z,79.48
2022-10-15T01:17:50.402Z,79.15
2022-10-15T01:21:06.342Z,79.33
2022-10-15T01:24:41.932Z,79.27
2022-10-15T01:27:55.446Z,79.16
2022-10-15T01:31:08.476Z,79.14
2022-10-15T01:34:23.307Z,79.09
2022-10-15T01:37:39.725Z,79.31
2022-10-15T01:40:50.665Z,79.25
2022-10-15T01:44:04.044Z,79.28
2022-10-15T01:47:31.737Z,79.65
2022-10-15T01:50:41.774Z,79.53
2022-10-15T01:53:49.563Z,79.32
2022-10-15T01:56:58.028Z,79.41
2022-10-15T02:00:06.358Z,79.50
2022-10-15T02:03:21.736Z,79.85
2022-10-15T02:06:32.056Z,79.59
2022-10-15T02:09:49.802Z,79.82
2022-10-15T02:13:06.864Z,80.17
2022-10-15T02:16:23.696Z,79.75
2022-10-15T02:19:39.294Z,80.11
2022-10-15T02:22:51.712Z,80.12
2022-10-15T02:25:59.069Z,80.01
2022-10-15T02:29:10.906Z,80.22
2022-10-15T02:32:19.639Z,80.53
2022-10-15T02:35:31.440Z,80.12
2022-10-15T02:38:40.277Z,80.08
2022-10-15T02:41:47.418Z,80.14
2022-10-15T02:44:53.242Z,79.54
2022-10-15T02:47:59.723Z,79.75
2022-10-15T02:51:10.151Z,79.89
2022-10-15T02:54:18.149Z,79.88
2022-10-15T02:57:26.556Z,79.61
2022-10-15T03:00:33.591Z,79.83
2022-10-15T03:03:39.609Z,79.89
2022-10-15T03:06:48.988Z,79.82
2022-10-15T03:09:54.989Z,80.33
2022-10-15T03:13:06.634Z,80.30
2022-10-15T03:16:19.343Z,80.22
2022-10-15T03:19:27.235Z,80.16
2022-10-15T03:22:36.275Z,80.17
2022-10-15T03:25:42.853Z,80.55
2022-10-15T03:28:53.176Z,80.18
2022-10-15T03:32:12.909Z,80.32
2022-10-15T03:35:19.149Z,80.63
2022-10-15T03:38:28.563Z,80.79
2022-10-15T03:41:34.303Z,80.89
2022-10-15T03:44:40.920Z,81.10
2022-10-15T03:47:49.868Z,81.49
2022-10-15T03:50:56.566Z,81.78
2022-10-15T03:54:08.644Z,81.91
2022-10-15T03:57:21.975Z,82.12
2022-10-15T04:00:36.203Z,82.42
2022-10-15T04:03:43.950Z,82.57
2022-10-15T04:06:50.763Z,82.54
2022-10-15T04:10:05.649Z,82.73
2022-10-15T04:13:16.906Z,82.92
2022-10-15T04:16:23.596Z,82.84
2022-10-15T04:19:29.312Z,83.14
2022-10-15T04:22:42.064Z,83.40
2022-10-15T04:25:50.711Z,83.02
2022-10-15T04:28:57.315Z,83.45
2022-10-15T04:32:04.313Z,83.38
2022-10-15T04:35:11.574Z,83.20
2022-10-15T04:38:29.523Z,82.79
2022-10-15T04:41:42.309Z,82.83
2022-10-15T04:44:52.082Z,82.64
2022-10-15T04:48:00.023Z,82.57
2022-10-15T04:51:10.692Z,82.76
2022-10-15T04:54:32.126Z,82.79
2022-10-15T04:57:44.211Z,83.07
2022-10-15T05:00:51.255Z,83.04
2022-10-15T05:04:10.140Z,82.97
2022-10-15T05:07:16.905Z,83.25
2022-10-15T05:10:23.512Z,83.42
2022-10-15T05:13:34.816Z,83.16
2022-10-15T05:16:42.795Z,83.55
2022-10-15T05:19:49.915Z,83.30
2022-10-15T05:23:00.067Z,83.26
2022-10-15T05:26:16.043Z,83.32
2022-10-15T05:29:24.762Z,83.50
2022-10-15T05:32:31.227Z,83.47
2022-10-15T05:35:38.002Z,83.38
2022-10-15T05:38:44.563Z,83.14
2022-10-15T05:41:51.256Z,82.85
2022-10-15T05:45:06.601Z,82.57
2022-10-15T05:48:12.359Z,82.59
2022-10-15T05:51:19.053Z,82.55
2022-10-15T05:54:26.091Z,82.23
2022-10-15T05:57:32.513Z,82.05
2022-10-15T06:00:45.336Z,81.97
2022-10-15T06:03:51.916Z,81.39
2022-10-15T06:06:57.763Z,81.50
2022-10-15T06:10:04.206Z,81.10
2022-10-15T06:13:13.092Z,81.29
2022-10-15T06:16:23.972Z,80.78
2022-10-15T06:19:29.997Z,80.62
2022-10-15T06:25:43.286Z,80.20
2022-10-15T06:28:50.205Z,80.14
2022-10-15T06:31:58.610Z,80.01
2022-10-15T06:35:07.556Z,79.70
2022-10-15T06:38:14.207Z,79.40
2022-10-15T06:41:20.931Z,79.05
2022-10-15T06:44:26.519Z,78.81
2022-10-15T06:47:35.911Z,78.68
2022-10-15T06:50:42.257Z,78.30
2022-10-15T06:53:48.693Z,78.50
2022-10-15T06:56:54.347Z,77.98
2022-10-15T07:00:00.896Z,77.94
2022-10-15T07:03:11.148Z,77.61
2022-10-15T07:06:17.669Z,77.14
2022-10-15T07:09:23.645Z,77.30
2022-10-15T07:12:30.371Z,76.99
2022-10-15T07:15:36.071Z,76.75
2022-10-15T07:18:45.942Z,76.70
2022-10-15T07:21:51.601Z,76.40
2022-10-15T07:24:58.572Z,76.06
2022-10-15T07:28:08.144Z,75.59
2022-10-15T07:31:14.664Z,75.47
2022-10-15T07:34:23.074Z,75.06
2022-10-15T07:37:29.646Z,74.66
2022-10-15T07:40:35.294Z,74.47
2022-10-15T07:43:42.787Z,74.20
2022-10-15T07:46:49.991Z,73.73
2022-10-15T07:49:59.214Z,73.43
2022-10-15T07:53:06.676Z,73.07
2022-10-15T07:56:15.200Z,72.71
2022-10-15T07:59:20.812Z,72.46
2022-10-15T08:02:27.296Z,72.27
2022-10-15T08:05:36.362Z,72.21
2022-10-15T08:08:42.819Z,71.70
2022-10-15T08:11:48.473Z,70.99
2022-10-15T08:14:57.410Z,70.64
2022-10-15T08:18:03.807Z,70.67
2022-10-15T08:21:14.796Z,70.30
2022-10-15T08:24:20.408Z,69.65
2022-10-15T08:27:26.828Z,69.82
2022-10-15T08:30:35.924Z,69.36
2022-10-15T08:33:49.092Z,69.47
2022-10-15T08:36:57.483Z,68.94
2022-10-15T08:40:04.066Z,68.77
2022-10-15T08:43:09.702Z,68.73
2022-10-15T08:46:22.407Z,68.26
2022-10-15T08:49:39.970Z,68.11
2022-10-15T08:52:51.681Z,67.69
2022-10-15T08:56:03.571Z,67.29
2022-10-15T08:59:21.125Z,67.27
2022-10-15T09:02:29.942Z,66.77
2022-10-15T09:05:46.375Z,66.70
2022-10-15T09:09:00.085Z,66.42
2022-10-15T09:12:22.014Z,66.22
2022-10-15T09:15:31.254Z,65.50
2022-10-15T09:18:40.969Z,64.77
2022-10-15T09:21:47.390Z,64.54
2022-10-15T09:24:57.116Z,64.55
2022-10-15T09:28:11.799Z,64.26
2022-10-15T09:31:23.124Z,63.69
2022-10-15T09:34:36.228Z,62.58
2022-10-15T09:37:52.227Z,63.26
2022-10-15T09:41:16.834Z,62.59
2022-10-15T09:44:27.680Z,63.53
2022-10-15T09:47:35.556Z,62.60
2022-10-15T09:50:47.896Z,61.91
2022-10-15T09:54:04.002Z,62.28
2022-10-15T09:57:17.640Z,61.54
2022-10-15T10:00:23.916Z,61.64
2022-10-15T10:03:33.560Z,60.89
2022-10-15T10:06:46.579Z,61.37
2022-10-15T10:09:57.549Z,60.84
2022-10-15T10:13:07.938Z,60.24
2022-10-15T10:20:23.498Z,59.63
2022-10-15T10:23:35.196Z,59.03
2022-10-15T10:26:40.873Z,57.92
2022-10-15T10:29:55.248Z,58.80
2022-10-15T10:33:03.536Z,57.37
2022-10-15T10:36:21.440Z,58.21
2022-10-15T10:39:30.239Z,58.42
2022-10-15T10:42:38.741Z,57.21
2022-10-15T10:46:00.608Z,58.13
2022-10-15T10:49:10.791Z,57.56
2022-10-15T10:52:24.964Z,57.25
2022-10-15T10:55:40.665Z,57.64
2022-10-15T10:58:47.174Z,57.69
2022-10-15T11:01:56.948Z,58.21
2022-10-15T11:05:03.533Z,58.44
2022-10-15T11:08:17.969Z,58.17
2022-10-15T11:11:32.636Z,57.96
2022-10-15T11:14:50.933Z,58.11
2022-10-15T11:18:21.060Z,57.88
2022-10-15T11:21:41.121Z,57.26
2022-10-15T11:25:06.054Z,57.45
2022-10-15T11:28:30.290Z,56.99
2022-10-15T11:32:01.635Z,56.79
2022-10-15T11:35:52.408Z,56.87
2022-10-15T11:39:16.274Z,56.91
2022-10-15T11:42:28.079Z,57.11
2022-10-15T11:45:48.860Z,56.79
2022-10-15T11:49:07.749Z,56.75
2022-10-15T11:52:44.960Z,56.35
2022-10-15T11:56:01.072Z,55.76
2022-10-15T11:59:19.619Z,55.01
2022-10-15T12:02:33.207Z,56.65
2022-10-15T12:05:43.045Z,56.09
2022-10-15T12:08:55.500Z,55.90
2022-10-15T12:12:11.037Z,55.81
2022-10-15T12:15:27.616Z,56.77
2022-10-15T12:18:42.200Z,56.07
2022-10-15T12:22:11.067Z,56.78
2022-10-15T12:25:46.624Z,56.66
2022-10-15T12:28:58.326Z,57.22
2022-10-15T12:32:09.003Z,57.34
2022-10-15T12:35:30.743Z,56.32
2022-10-15T12:38:37.719Z,56.83
2022-10-15T12:41:50.114Z,56.25
2022-10-15T12:44:56.111Z,55.71
2022-10-15T12:48:22.879Z,54.73
2022-10-15T12:51:37.092Z,55.04
2022-10-15T12:54:44.839Z,54.86
2022-10-15T12:58:03.825Z,55.02
2022-10-15T13:01:31.576Z,54.41
2022-10-15T13:04:43.419Z,54.63
2022-10-15T13:07:50.632Z,53.36
2022-10-15T13:10:59.081Z,54.08
2022-10-15T13:14:24.141Z,54.10
2022-10-15T13:17:34.022Z,53.92
2022-10-15T13:20:43.677Z,54.19
2022-10-15T13:23:51.508Z,54.10
2022-10-15T13:27:00.413Z,53.47
2022-10-15T13:30:16.371Z,53.75
2022-10-15T13:33:44.267Z,54.12
2022-10-15T13:36:50.060Z,54.02
2022-10-15T13:39:57.354Z,54.19
2022-10-15T13:43:03.587Z,53.76
2022-10-15T13:46:19.070Z,53.46
2022-10-15T13:49:26.593Z,53.59
2022-10-15T13:52:35.697Z,53.84
2022-10-15T13:55:46.732Z,54.12
2022-10-15T13:58:53.582Z,53.92
2022-10-15T14:02:06.102Z,53.89
2022-10-15T14:05:19.247Z,54.00
2022-10-15T14:08:28.111Z,54.18
2022-10-15T14:11:40.194Z,54.25
2022-10-15T14:14:48.398Z,54.31
2022-10-15T14:17:57.898Z,54.19
2022-10-15T14:21:06.006Z,54.14
2022-10-15T14:24:17.926Z,54.00
2022-10-15T14:27:26.307Z,54.08
2022-10-15T14:30:37.308Z,54.47
2022-10-15T14:33:47.910Z,54.30
2022-10-15T14:36:54.555Z,54.61
2022-10-15T14:40:13.950Z,54.76
2022-10-15T14:43:21.978Z,54.85
2022-10-15T14:46:27.690Z,54.80
2022-10-15T14:49:38.149Z,54.30
2022-10-15T14:52:48.408Z,54.30
2022-10-15T14:55:59.471Z,54.40
2022-10-15T14:59:09.740Z,54.40
2022-10-15T15:02:19.408Z,54.39
2022-10-15T15:05:29.148Z,54.45
2022-10-15T15:08:35.615Z,54.29
2022-10-15T15:11:41.799Z,54.19
2022-10-15T15:14:48.596Z,54.28
2022-10-15T15:17:54.478Z,54.58
2022-10-15T15:21:06.654Z,54.37
2022-10-15T15:24:12.487Z,54.72
2022-10-15T15:27:27.677Z,54.65
2022-10-15T15:30:35.069Z,54.92
2022-10-15T15:33:41.530Z,54.83
2022-10-15T15:36:50.261Z,54.76
2022-10-15T15:39:57.133Z,54.70
2022-10-15T15:43:06.862Z,54.95
2022-10-15T15:46:13.465Z,55.04
2022-10-15T15:49:19.378Z,55.34
2022-10-15T15:52:31.287Z,55.30
2022-10-15T15:55:39.775Z,55.26
2022-10-15T15:58:46.765Z,55.62
2022-10-15T16:01:52.586Z,55.52
2022-10-15T16:04:59.089Z,55.64
2022-10-15T16:08:10.678Z,55.56
2022-10-15T16:11:17.133Z,56.03
2022-10-15T16:14:22.838Z,56.06
2022-10-15T16:17:29.603Z,55.89
2022-10-15T16:20:36.074Z,55.85
2022-10-15T16:23:45.336Z,56.01
2022-10-15T16:26:50.933Z,55.98
2022-10-15T16:29:59.573Z,56.11
2022-10-15T16:36:14.893Z,56.21
2022-10-15T16:39:23.647Z,56.51
2022-10-15T16:42:30.385Z,56.39
2022-10-15T16:45:36.924Z,56.54
2022-10-15T16:48:43.656Z,56.51
2022-10-15T16:51:49.393Z,56.68
2022-10-15T16:54:58.817Z,56.71
2022-10-15T16:58:06.521Z,57.02
2022-10-15T17:01:15.817Z,57.02
2022-10-15T17:04:21.526Z,57.14
2022-10-15T17:07:28.275Z,57.11
2022-10-15T17:10:36.788Z,57.31
2022-10-15T17:13:43.572Z,57.15
2022-10-15T17:16:51.371Z,57.27
2022-10-15T17:19:57.828Z,57.20
2022-10-15T17:23:03.554Z,57.21
2022-10-15T17:26:14.586Z,57.30
2022-10-15T17:29:27.745Z,57.01
2022-10-15T17:32:37.575Z,57.42
2022-10-15T17:35:43.197Z,57.27
2022-10-15T17:38:51.219Z,57.45
2022-10-15T17:41:59.932Z,57.83
2022-10-15T17:45:09.218Z,58.12
2022-10-15T17:48:14.788Z,58.55
2022-10-15T17:51:23.420Z,58.66
2022-10-15T17:54:33.355Z,58.73
2022-10-15T17:57:42.960Z,58.95
2022-10-15T18:00:55.402Z,59.08
2022-10-15T18:04:03.219Z,59.15
2022-10-15T18:07:09.208Z,59.32
2022-10-15T18:10:15.975Z,59.55
2022-10-15T18:13:24.367Z,59.54
2022-10-15T18:16:30.981Z,59.70
2022-10-15T18:19:36.855Z,59.84
2022-10-15T18:22:43.562Z,59.74
2022-10-15T18:25:49.287Z,59.77
2022-10-15T18:28:58.550Z,59.89
2022-10-15T18:32:06.475Z,59.62
2022-10-15T18:35:13.019Z,59.79
2022-10-15T18:38:18.918Z,59.92
2022-10-15T18:41:28.284Z,59.74
2022-10-15T18:44:36.662Z,59.78
2022-10-15T18:47:43.369Z,59.94
2022-10-15T18:50:48.976Z,60.18
2022-10-15T18:53:55.593Z,60.30
2022-10-15T18:57:04.092Z,60.60
2022-10-15T19:00:14.645Z,60.83
2022-10-15T19:03:20.641Z,61.05
2022-10-15T19:06:29.057Z,61.15
2022-10-15T19:09:35.378Z,60.98
2022-10-15T19:12:42.402Z,60.87
2022-10-15T19:15:50.935Z,60.98
2022-10-15T19:18:58.428Z,61.51
2022-10-15T19:22:04.089Z,61.32
2022-10-15T19:25:11.451Z,61.55
2022-10-15T19:28:17.890Z,61.46
2022-10-15T19:31:29.795Z,61.42
2022-10-15T19:34:35.555Z,61.45
2022-10-15T19:37:42.699Z,61.29
2022-10-15T19:40:49.537Z,61.42
2022-10-15T19:43:56.139Z,61.45
2022-10-15T19:47:06.798Z,61.55
2022-10-15T19:50:13.232Z,61.31
2022-10-15T19:53:20.526Z,61.24
2022-10-15T19:56:27.375Z,61.35
2022-10-15T19:59:32.968Z,61.19
2022-10-15T20:02:42.472Z,61.19
2022-10-15T20:05:48.562Z,61.16
2022-10-15T20:08:55.019Z,61.37
2022-10-15T20:12:00.959Z,61.15
2022-10-15T20:15:10.496Z,61.26
2022-10-15T20:18:19.573Z,61.10
2022-10-15T20:21:27.522Z,61.16
2022-10-15T20:24:33.097Z,61.06
2022-10-15T20:27:39.605Z,61.16
2022-10-15T20:30:45.484Z,61.27
2022-10-15T20:33:55.718Z,61.16
2022-10-15T20:37:03.309Z,61.07
2022-10-15T20:40:11.161Z,61.27
2022-10-15T20:43:16.798Z,61.20
2022-10-15T20:46:27.673Z,61.14
2022-10-15T20:49:41.340Z,61.14
2022-10-15T20:52:49.297Z,61.06
2022-10-15T20:55:55.265Z,61.22
2022-10-15T20:59:03.376Z,61.47
2022-10-15T21:02:08.991Z,61.37
2022-10-15T21:05:19.581Z,61.51
2022-10-15T21:08:27.378Z,61.52
2022-10-15T21:11:34.201Z,61.56
2022-10-15T21:14:40.113Z,61.67
2022-10-15T21:17:46.576Z,61.99
2022-10-15T21:20:55.198Z,62.19
2022-10-15T21:24:03.576Z,62.35
2022-10-15T21:27:10.431Z,62.65
2022-10-15T21:30:16.967Z,62.84
2022-10-15T21:33:22.623Z,63.01
2022-10-15T21:36:32.147Z,63.25
2022-10-15T21:39:37.777Z,63.56
2022-10-15T21:42:44.251Z,64.04
2022-10-15T21:45:49.895Z,64.16
2022-10-15T21:48:57.084Z,64.43
2022-10-15T21:52:06.279Z,64.75
2022-10-15T21:55:13.065Z,65.00
2022-10-15T21:58:18.692Z,65.10
2022-10-15T22:01:26.615Z,65.49
2022-10-15T22:04:36.686Z,65.81
2022-10-15T22:07:46.178Z,65.79
2022-10-15T22:10:51.761Z,65.96
2022-10-15T22:14:00.103Z,66.28
2022-10-15T22:17:07.645Z,66.60
2022-10-15T22:20:14.136Z,66.77
2022-10-15T22:23:26.900Z,67.11
2022-10-15T22:26:37.196Z,67.31
2022-10-15T22:29:43.191Z,67.54
2022-10-15T22:32:49.963Z,67.66
2022-10-15T22:35:55.564Z,67.89
2022-10-15T22:39:07.942Z,67.96
2022-10-15T22:42:13.775Z,68.00
2022-10-15T22:45:20.264Z,68.27
2022-10-15T22:48:26.506Z,68.57
2022-10-15T22:51:32.982Z,68.59
2022-10-15T22:54:41.398Z,68.97
2022-10-15T22:57:47.888Z,68.87
2022-10-15T23:00:54.256Z,69.00
2022-10-15T23:04:03.624Z,68.97
2022-10-15T23:07:09.231Z,69.08
2022-10-15T23:10:18.679Z,69.25
2022-10-15T23:13:25.013Z,69.27
2022-10-15T23:16:34.343Z,69.50
2022-10-15T23:19:39.951Z,69.69
2022-10-15T23:22:47.533Z,70.12
2022-10-15T23:25:56.292Z,70.20
2022-10-15T23:29:06.358Z,70.31
2022-10-15T23:32:12.407Z,70.62
2022-10-15T23:35:19.020Z,71.22
2022-10-15T23:38:24.570Z,71.47
2022-10-15T23:41:34.156Z,71.70
2022-10-15T23:44:39.735Z,72.49
2022-10-15T23:47:46.257Z,72.37
2022-10-15T23:50:51.951Z,72.39
2022-10-15T23:54:03.326Z,72.47
2022-10-15T23:57:11.850Z,72.38
